Terminal Aerodrome Forecast
Issued by NWS

Home | Current Version | Previous Version | Text Only | Print | Product List | Glossary On
Versions: 1 2 3 4 5 6 7 8 9 10 11 12 13
000
FTUS46 KOTX 262338
TAFMWH
TAF
KMWH 262338Z 2700/2724 27013G18KT P6SM BKN150 OVC200
     FM271000 26010KT P6SM SKC=

USA.gov is the U.S. government's official web portal to all federal, state and local government web resources and services.